Terminal Aerodrome Forecast
Issued by NWS Buffalo, NY

Home | Current Version | Previous Version | Text Only | Print | Product List | Glossary On
Versions: 1 2 3 4 5 6 7 8 9 10 11 12 13 14 15 16 17 18 19 20 21 22 23 24
000
FTUS41 KBUF 180251 AAA
TAFART
TAF AMD
KART 180251Z 1803/1824 21010KT P6SM SCT050 WS020/26035KT
     FM180700 22005KT P6SM SCT150
     FM181600 22011KT P6SM SKC
     FM182200 19004KT P6SM SKC=

USA.gov is the U.S. government's official web portal to all federal, state and local government web resources and services.